createdAt,value
2023-05-19T00:01:37.587Z,13.50
2023-05-19T00:04:05.465Z,13.50
2023-05-19T00:06:33.564Z,13.50
2023-05-19T00:09:02.633Z,13.50
2023-05-19T00:11:30.316Z,13.40
2023-05-19T00:13:58.592Z,13.40
2023-05-19T00:16:28.573Z,13.40
2023-05-19T00:18:57.140Z,13.40
2023-05-19T00:21:24.225Z,13.40
2023-05-19T00:23:51.128Z,13.40
2023-05-19T00:26:18.358Z,13.40
2023-05-19T00:28:54.709Z,13.30
2023-05-19T00:31:21.789Z,13.30
2023-05-19T00:33:50.073Z,13.30
2023-05-19T00:36:16.999Z,13.30
2023-05-19T00:38:43.921Z,13.30
2023-05-19T00:41:11.026Z,13.20
2023-05-19T00:43:37.919Z,13.20
2023-05-19T00:46:04.956Z,13.10
2023-05-19T00:48:31.849Z,13.10
2023-05-19T00:51:05.213Z,13.00
2023-05-19T00:53:33.472Z,13.10
2023-05-19T00:56:01.550Z,13.10
2023-05-19T00:58:30.374Z,13.00
2023-05-19T01:01:03.195Z,13.10
2023-05-19T01:03:31.515Z,13.10
2023-05-19T01:06:04.834Z,13.10
2023-05-19T01:08:32.756Z,13.10
2023-05-19T01:11:00.091Z,13.10
2023-05-19T01:13:28.128Z,13.00
2023-05-19T01:16:06.608Z,13.00
2023-05-19T01:18:44.378Z,13.00
2023-05-19T01:21:37.167Z,13.00
2023-05-19T01:24:23.252Z,13.00
2023-05-19T01:27:15.200Z,13.00
2023-05-19T01:29:53.311Z,13.00
2023-05-19T01:32:23.849Z,12.90
2023-05-19T01:34:52.199Z,12.90
2023-05-19T01:37:19.808Z,12.90
2023-05-19T01:39:47.754Z,12.90
2023-05-19T01:42:16.683Z,12.90
2023-05-19T01:44:44.495Z,12.90
2023-05-19T01:47:11.572Z,12.90
2023-05-19T01:49:39.912Z,12.80
2023-05-19T01:52:07.174Z,12.90
2023-05-19T01:54:34.129Z,12.90
2023-05-19T01:57:12.318Z,12.90
2023-05-19T01:59:51.591Z,12.90
2023-05-19T02:02:26.430Z,12.80
2023-05-19T02:05:00.972Z,12.80
2023-05-19T02:07:36.231Z,12.80
2023-05-19T02:10:07.036Z,12.80
2023-05-19T02:12:36.374Z,12.70
2023-05-19T02:15:07.159Z,12.70
2023-05-19T02:17:38.254Z,12.70
2023-05-19T02:20:09.232Z,12.60
2023-05-19T02:22:36.944Z,12.60
2023-05-19T02:25:04.223Z,12.60
2023-05-19T02:27:33.261Z,12.60
2023-05-19T02:30:00.178Z,12.60
2023-05-19T02:32:27.127Z,12.60
2023-05-19T02:34:56.472Z,12.60
2023-05-19T02:37:25.234Z,12.60
2023-05-19T02:39:52.149Z,12.50
2023-05-19T02:42:19.136Z,12.50
2023-05-19T02:44:46.229Z,12.50
2023-05-19T02:47:13.175Z,12.50
2023-05-19T02:49:40.412Z,12.50
2023-05-19T02:52:07.443Z,12.40
2023-05-19T02:54:35.825Z,12.40
2023-05-19T02:57:02.979Z,12.40
2023-05-19T02:59:29.976Z,12.40
2023-05-19T03:02:01.787Z,12.40
2023-05-19T03:04:29.650Z,12.40
2023-05-19T03:06:57.278Z,12.40
2023-05-19T03:09:24.299Z,12.40
2023-05-19T03:11:52.641Z,12.40
2023-05-19T03:14:23.759Z,12.30
2023-05-19T03:16:51.036Z,12.40
2023-05-19T03:19:18.211Z,12.30
2023-05-19T03:21:45.311Z,12.30
2023-05-19T03:24:12.197Z,12.30
2023-05-19T03:26:39.420Z,12.30
2023-05-19T03:29:08.288Z,12.30
2023-05-19T03:31:36.931Z,12.30
2023-05-19T03:34:04.963Z,12.30
2023-05-19T03:36:39.702Z,12.30
2023-05-19T03:39:12.061Z,12.30
2023-05-19T03:41:39.496Z,12.30
2023-05-19T03:44:07.888Z,12.30
2023-05-19T03:46:35.790Z,12.30
2023-05-19T03:49:20.405Z,12.40
2023-05-19T03:52:06.186Z,12.40
2023-05-19T03:54:47.708Z,12.40
2023-05-19T03:57:14.785Z,12.40
2023-05-19T03:59:43.986Z,12.30
2023-05-19T04:02:11.176Z,12.30
2023-05-19T04:04:38.164Z,12.30
2023-05-19T04:07:05.197Z,12.30
2023-05-19T04:09:35.118Z,12.30
2023-05-19T04:12:02.857Z,12.30
2023-05-19T04:14:29.837Z,12.30
2023-05-19T04:16:58.285Z,12.30
2023-05-19T04:19:25.592Z,12.30
2023-05-19T04:21:52.500Z,12.30
2023-05-19T04:24:19.400Z,12.30
2023-05-19T04:26:47.366Z,12.20
2023-05-19T04:29:17.873Z,12.30
2023-05-19T04:31:44.956Z,12.30
2023-05-19T04:34:13.456Z,12.30
2023-05-19T04:36:40.498Z,12.30
2023-05-19T04:39:09.991Z,12.30
2023-05-19T04:41:40.412Z,12.30
2023-05-19T04:44:09.078Z,12.30
2023-05-19T04:46:38.188Z,12.40
2023-05-19T04:49:06.065Z,12.40
2023-05-19T04:51:35.723Z,12.40
2023-05-19T04:54:03.945Z,12.40
2023-05-19T04:56:30.973Z,12.40
2023-05-19T04:58:57.910Z,12.40
2023-05-19T05:01:27.047Z,12.40
2023-05-19T05:03:55.796Z,12.40
2023-05-19T05:06:23.137Z,12.40
2023-05-19T05:08:52.275Z,12.40
2023-05-19T05:11:19.727Z,12.50
2023-05-19T05:13:47.771Z,12.50
2023-05-19T05:16:15.874Z,12.50
2023-05-19T05:18:44.931Z,12.50
2023-05-19T05:21:12.756Z,12.40
2023-05-19T05:23:41.257Z,12.40
2023-05-19T05:26:19.581Z,12.50
2023-05-19T05:28:49.054Z,12.50
2023-05-19T05:31:17.062Z,12.50
2023-05-19T05:33:45.421Z,12.50
2023-05-19T05:36:14.114Z,12.50
2023-05-19T05:38:41.474Z,12.50
2023-05-19T05:41:09.817Z,12.50
2023-05-19T05:43:37.771Z,12.50
2023-05-19T05:46:05.253Z,12.50
2023-05-19T05:48:33.195Z,12.60
2023-05-19T05:51:00.672Z,12.60
2023-05-19T05:53:34.039Z,12.70
2023-05-19T05:56:02.246Z,12.70
2023-05-19T05:58:40.737Z,12.80
2023-05-19T06:01:11.124Z,12.80
2023-05-19T06:03:40.917Z,12.90
2023-05-19T06:06:09.088Z,12.90
2023-05-19T06:08:36.331Z,13.00
2023-05-19T06:11:09.037Z,13.10
2023-05-19T06:13:41.234Z,13.20
2023-05-19T06:16:11.043Z,13.20
2023-05-19T06:18:46.703Z,13.30
2023-05-19T06:21:13.720Z,13.30
2023-05-19T06:23:42.008Z,13.40
2023-05-19T06:26:10.873Z,13.40
2023-05-19T06:28:39.402Z,13.50
2023-05-19T06:31:06.662Z,13.50
2023-05-19T06:33:51.129Z,13.50
2023-05-19T06:36:18.100Z,13.60
2023-05-19T06:38:46.127Z,13.70
2023-05-19T06:41:13.123Z,13.70
2023-05-19T06:43:42.383Z,13.70
2023-05-19T06:46:14.285Z,13.80
2023-05-19T06:48:43.449Z,13.90
2023-05-19T06:51:11.358Z,14.10
2023-05-19T06:53:40.367Z,14.10
2023-05-19T06:56:09.284Z,14.30
2023-05-19T06:58:39.433Z,14.40
2023-05-19T07:01:07.820Z,14.50
2023-05-19T07:03:42.081Z,14.60
2023-05-19T07:06:10.592Z,14.70
2023-05-19T07:08:37.712Z,14.90
2023-05-19T07:11:06.668Z,14.90
2023-05-19T07:13:33.655Z,15.00
2023-05-19T07:16:00.783Z,15.00
2023-05-19T07:18:31.932Z,15.00
2023-05-19T07:20:58.979Z,15.00
2023-05-19T07:23:26.191Z,15.00
2023-05-19T07:25:56.129Z,15.00
2023-05-19T07:28:23.204Z,15.00
2023-05-19T07:30:50.294Z,15.10
2023-05-19T07:33:17.432Z,15.10
2023-05-19T07:35:46.305Z,15.20
2023-05-19T07:38:13.297Z,15.30
2023-05-19T07:40:40.307Z,15.40
2023-05-19T07:43:07.267Z,15.50
2023-05-19T07:45:34.545Z,15.60
2023-05-19T07:48:01.522Z,15.70
2023-05-19T07:50:28.645Z,15.80
2023-05-19T07:52:56.915Z,15.90
2023-05-19T07:55:23.835Z,15.80
2023-05-19T07:57:51.111Z,15.80
2023-05-19T08:00:18.466Z,15.70
2023-05-19T08:02:45.778Z,15.70
2023-05-19T08:05:12.850Z,15.70
2023-05-19T08:07:39.895Z,15.70
2023-05-19T08:10:08.869Z,15.60
2023-05-19T08:12:35.867Z,15.60
2023-05-19T08:15:03.016Z,15.50
2023-05-19T08:17:29.960Z,15.50
2023-05-19T08:19:56.898Z,15.60
2023-05-19T08:22:23.799Z,15.60
2023-05-19T08:24:51.787Z,15.70
2023-05-19T08:27:20.089Z,15.70
2023-05-19T08:29:47.143Z,15.70
2023-05-19T08:32:14.085Z,15.70
2023-05-19T08:34:41.300Z,15.70
2023-05-19T08:37:08.291Z,15.70
2023-05-19T08:39:35.293Z,15.80
2023-05-19T08:42:02.440Z,15.70
2023-05-19T08:44:31.178Z,15.80
2023-05-19T08:47:01.070Z,15.90
2023-05-19T08:49:31.068Z,16.00
2023-05-19T08:52:06.296Z,16.10
2023-05-19T08:54:40.075Z,16.10
2023-05-19T08:57:07.897Z,16.10
2023-05-19T08:59:36.612Z,16.10
2023-05-19T09:02:04.850Z,16.20
2023-05-19T09:04:32.736Z,16.20
2023-05-19T09:07:03.888Z,16.30
2023-05-19T09:09:31.071Z,16.30
2023-05-19T09:11:58.266Z,16.30
2023-05-19T09:14:25.407Z,16.40
2023-05-19T09:16:54.304Z,16.40
2023-05-19T09:19:21.299Z,16.40
2023-05-19T09:21:59.496Z,16.50
2023-05-19T09:24:26.967Z,16.30
2023-05-19T09:26:57.958Z,16.30
2023-05-19T09:29:26.810Z,16.20
2023-05-19T09:32:00.597Z,16.30
2023-05-19T09:34:27.930Z,16.20
2023-05-19T09:36:55.084Z,16.20
2023-05-19T09:39:23.303Z,16.20
2023-05-19T09:41:53.565Z,16.20
2023-05-19T09:44:24.646Z,16.20
2023-05-19T09:46:52.785Z,16.30
2023-05-19T09:49:22.286Z,16.30
2023-05-19T09:51:51.092Z,16.40
2023-05-19T09:54:20.406Z,16.50
2023-05-19T09:56:51.978Z,16.40
2023-05-19T09:59:19.987Z,16.50
2023-05-19T10:01:47.956Z,16.50
2023-05-19T10:04:15.709Z,16.50
2023-05-19T10:06:44.653Z,16.50
2023-05-19T10:09:12.353Z,16.40
2023-05-19T10:11:39.675Z,16.40
2023-05-19T10:14:08.132Z,16.40
2023-05-19T10:16:36.288Z,16.40
2023-05-19T10:19:04.673Z,16.30
2023-05-19T10:21:31.693Z,16.30
2023-05-19T10:23:59.980Z,16.20
2023-05-19T10:26:27.682Z,16.10
2023-05-19T10:28:55.031Z,16.10
2023-05-19T10:31:23.219Z,16.20
2023-05-19T10:34:10.766Z,16.20
2023-05-19T10:36:47.646Z,16.20
2023-05-19T10:39:22.029Z,16.20
2023-05-19T10:41:59.906Z,16.20
2023-05-19T10:44:40.706Z,16.20
2023-05-19T10:47:08.660Z,16.10
2023-05-19T10:49:36.660Z,16.00
2023-05-19T10:52:03.894Z,16.00
2023-05-19T10:54:43.432Z,16.00
2023-05-19T10:57:15.149Z,16.10
2023-05-19T10:59:42.110Z,16.20
2023-05-19T11:02:09.497Z,16.30
2023-05-19T11:04:45.260Z,16.30
2023-05-19T11:07:17.531Z,16.30
2023-05-19T11:09:49.982Z,16.20
2023-05-19T11:12:20.862Z,16.20
2023-05-19T11:14:47.876Z,16.10
2023-05-19T11:17:15.904Z,16.10
2023-05-19T11:19:53.772Z,16.10
2023-05-19T11:22:24.464Z,16.10
2023-05-19T11:24:54.931Z,16.10
2023-05-19T11:27:24.944Z,16.10
2023-05-19T11:29:52.633Z,16.20
2023-05-19T11:32:21.200Z,16.10
2023-05-19T11:34:49.446Z,16.20
2023-05-19T11:37:16.543Z,16.20
2023-05-19T11:39:45.241Z,16.30
2023-05-19T11:42:13.912Z,16.30
2023-05-19T11:44:41.312Z,16.30
2023-05-19T11:47:08.703Z,16.20
2023-05-19T11:49:35.905Z,16.20
2023-05-19T11:52:04.000Z,16.10
2023-05-19T11:54:32.495Z,16.20
2023-05-19T11:57:02.147Z,16.20
2023-05-19T11:59:36.029Z,16.20
2023-05-19T12:02:14.021Z,16.20
2023-05-19T12:04:41.269Z,16.10
2023-05-19T12:07:08.286Z,16.00
2023-05-19T12:09:35.684Z,16.00
2023-05-19T12:12:03.237Z,16.10
2023-05-19T12:14:34.398Z,16.10
2023-05-19T12:17:12.572Z,16.20
2023-05-19T12:19:40.335Z,16.20
2023-05-19T12:22:08.282Z,16.20
2023-05-19T12:24:36.316Z,16.30
2023-05-19T12:27:10.259Z,16.20
2023-05-19T12:29:38.433Z,16.20
2023-05-19T12:32:07.970Z,16.20
2023-05-19T12:34:37.456Z,16.20
2023-05-19T12:37:05.013Z,16.20
2023-05-19T12:39:32.433Z,16.20
2023-05-19T12:42:03.247Z,16.10
2023-05-19T12:44:31.410Z,16.00
2023-05-19T12:46:59.518Z,16.00
2023-05-19T12:49:26.480Z,15.90
2023-05-19T12:51:54.776Z,15.80
2023-05-19T12:54:22.019Z,15.90
2023-05-19T12:56:51.129Z,15.90
2023-05-19T12:59:37.091Z,15.90
2023-05-19T13:02:05.387Z,15.90
2023-05-19T13:04:32.576Z,15.80
2023-05-19T13:07:01.694Z,15.80
2023-05-19T13:09:28.980Z,15.80
2023-05-19T13:11:55.979Z,15.80
2023-05-19T13:14:22.931Z,15.90
2023-05-19T13:16:49.845Z,16.00
2023-05-19T13:19:25.270Z,16.20
2023-05-19T13:21:52.907Z,16.30
2023-05-19T13:24:21.340Z,16.40
2023-05-19T13:26:48.813Z,16.40
2023-05-19T13:29:15.794Z,16.50
2023-05-19T13:31:42.775Z,16.50
2023-05-19T13:34:09.711Z,16.50
2023-05-19T13:36:36.822Z,16.50
2023-05-19T13:39:03.997Z,16.40
2023-05-19T13:41:32.437Z,16.40
2023-05-19T13:43:59.625Z,16.30
2023-05-19T13:46:36.603Z,16.30
2023-05-19T13:49:10.871Z,16.30
2023-05-19T13:51:37.785Z,16.30
2023-05-19T13:54:05.067Z,16.40
2023-05-19T13:56:33.501Z,16.30
2023-05-19T13:59:00.427Z,16.40
2023-05-19T14:01:27.370Z,16.40
2023-05-19T14:03:54.382Z,16.40
2023-05-19T14:06:21.454Z,16.50
2023-05-19T14:08:48.413Z,16.60
2023-05-19T14:11:19.450Z,16.50
2023-05-19T14:13:50.577Z,16.50
2023-05-19T14:16:20.419Z,16.50
2023-05-19T14:18:47.523Z,16.60
2023-05-19T14:21:14.863Z,16.70
2023-05-19T14:23:42.223Z,16.80
2023-05-19T14:26:09.179Z,16.80
2023-05-19T14:28:36.192Z,16.80
2023-05-19T14:31:04.590Z,16.90
2023-05-19T14:33:35.169Z,16.90
2023-05-19T14:36:02.688Z,16.90
2023-05-19T14:38:29.808Z,16.80
2023-05-19T14:40:56.844Z,16.70
2023-05-19T14:43:23.989Z,16.70
2023-05-19T14:45:50.935Z,16.70
2023-05-19T14:48:19.461Z,16.70
2023-05-19T14:50:48.381Z,16.70
2023-05-19T14:53:15.364Z,16.60
2023-05-19T14:55:42.421Z,16.60
2023-05-19T14:58:19.994Z,16.60
2023-05-19T15:00:54.230Z,16.50
2023-05-19T15:03:23.174Z,16.50
2023-05-19T15:05:50.141Z,16.50
2023-05-19T15:08:17.190Z,16.60
2023-05-19T15:10:47.913Z,16.50
2023-05-19T15:13:14.801Z,16.60
2023-05-19T15:15:41.733Z,16.60
2023-05-19T15:18:08.756Z,16.60
2023-05-19T15:20:37.120Z,16.60
2023-05-19T15:23:04.013Z,16.50
2023-05-19T15:25:31.075Z,16.50
2023-05-19T15:27:58.027Z,16.40
2023-05-19T15:30:24.886Z,16.30
2023-05-19T15:32:51.975Z,16.30
2023-05-19T15:35:18.920Z,16.20
2023-05-19T15:37:47.150Z,16.20
2023-05-19T15:40:14.284Z,16.20
2023-05-19T15:42:41.193Z,16.20
2023-05-19T15:45:09.680Z,16.30
2023-05-19T15:47:36.646Z,16.30
2023-05-19T15:50:04.038Z,16.40
2023-05-19T15:52:31.151Z,16.40
2023-05-19T15:54:59.394Z,16.40
2023-05-19T15:57:26.299Z,16.40
2023-05-19T15:59:53.233Z,16.40
2023-05-19T16:02:20.454Z,16.40
2023-05-19T16:04:47.386Z,16.40
2023-05-19T16:07:14.307Z,16.50
2023-05-19T16:09:41.226Z,16.50
2023-05-19T16:12:09.533Z,16.60
2023-05-19T16:14:37.746Z,16.60
2023-05-19T16:17:10.893Z,16.70
2023-05-19T16:19:38.073Z,16.70
2023-05-19T16:22:05.316Z,16.70
2023-05-19T16:24:32.206Z,16.70
2023-05-19T16:26:59.085Z,16.80
2023-05-19T16:29:27.326Z,16.90
2023-05-19T16:31:54.207Z,16.90
2023-05-19T16:34:21.110Z,16.90
2023-05-19T16:36:48.024Z,16.90
2023-05-19T16:39:15.263Z,17.00
2023-05-19T16:41:42.155Z,17.00
2023-05-19T16:44:09.073Z,17.00
2023-05-19T16:46:37.317Z,17.10
2023-05-19T16:49:04.221Z,17.10
2023-05-19T16:51:31.257Z,17.10
2023-05-19T16:53:58.127Z,17.10
2023-05-19T16:56:25.127Z,17.10
2023-05-19T16:58:53.857Z,17.10
2023-05-19T17:01:21.121Z,17.00
2023-05-19T17:03:49.409Z,17.00
2023-05-19T17:06:16.376Z,16.90
2023-05-19T17:08:43.342Z,16.90
2023-05-19T17:11:10.543Z,16.90
2023-05-19T17:13:37.541Z,16.90
2023-05-19T17:16:04.735Z,16.80
2023-05-19T17:18:31.663Z,16.80
2023-05-19T17:21:03.529Z,16.80
2023-05-19T17:23:30.916Z,16.70
2023-05-19T17:25:57.865Z,16.60
2023-05-19T17:28:25.188Z,16.50
2023-05-19T17:30:52.118Z,16.50
2023-05-19T17:33:19.206Z,16.40
2023-05-19T17:35:46.182Z,16.40
2023-05-19T17:38:14.446Z,16.30
2023-05-19T17:40:42.164Z,16.30
2023-05-19T17:43:09.314Z,16.20
2023-05-19T17:45:36.354Z,16.30
2023-05-19T17:48:04.716Z,16.20
2023-05-19T17:50:31.961Z,16.20
2023-05-19T17:52:59.765Z,16.20
2023-05-19T17:55:29.982Z,16.20
2023-05-19T17:57:57.577Z,16.10
2023-05-19T18:00:25.470Z,16.10
2023-05-19T18:02:53.285Z,16.10
2023-05-19T18:05:21.141Z,16.00
2023-05-19T18:07:49.411Z,15.90
2023-05-19T18:10:17.218Z,15.90
2023-05-19T18:12:47.747Z,15.80
2023-05-19T18:15:14.739Z,15.80
2023-05-19T18:17:41.689Z,15.70
2023-05-19T18:20:09.583Z,15.70
2023-05-19T18:22:36.465Z,15.60
2023-05-19T18:25:03.644Z,15.60
2023-05-19T18:27:31.367Z,15.50
2023-05-19T18:29:59.686Z,15.40
2023-05-19T18:32:26.675Z,15.40
2023-05-19T18:34:53.590Z,15.40
2023-05-19T18:37:20.634Z,15.30
2023-05-19T18:39:47.553Z,15.30
2023-05-19T18:42:14.416Z,15.20
2023-05-19T18:44:42.164Z,15.20
2023-05-19T18:47:10.866Z,15.10
2023-05-19T18:49:37.818Z,15.10
2023-05-19T18:52:05.423Z,15.00
2023-05-19T18:54:32.592Z,15.00
2023-05-19T18:56:59.615Z,14.90
2023-05-19T18:59:26.797Z,14.90
2023-05-19T19:01:54.001Z,14.70
2023-05-19T19:04:23.339Z,14.70
2023-05-19T19:06:51.215Z,14.60
2023-05-19T19:09:18.281Z,14.60
2023-05-19T19:11:45.392Z,14.50
2023-05-19T19:14:12.255Z,14.40
2023-05-19T19:16:39.168Z,14.40
2023-05-19T19:19:06.236Z,14.30
2023-05-19T19:21:34.640Z,14.30
2023-05-19T19:24:02.104Z,14.30
2023-05-19T19:26:29.121Z,14.30
2023-05-19T19:28:56.077Z,14.20
2023-05-19T19:31:23.396Z,14.20
2023-05-19T19:33:50.329Z,14.00
2023-05-19T19:36:17.335Z,14.00
2023-05-19T19:38:45.617Z,13.90
2023-05-19T19:41:12.502Z,13.90
2023-05-19T19:43:39.468Z,13.90
2023-05-19T19:46:07.973Z,13.80
2023-05-19T19:48:35.250Z,13.80
2023-05-19T19:51:02.200Z,13.80
2023-05-19T19:53:29.211Z,13.70
2023-05-19T19:55:58.606Z,13.70
2023-05-19T19:58:26.124Z,13.70
2023-05-19T20:00:57.128Z,13.70
2023-05-19T20:03:24.472Z,13.70
2023-05-19T20:05:51.570Z,13.70
2023-05-19T20:08:20.064Z,13.70
2023-05-19T20:10:48.043Z,13.70
2023-05-19T20:13:16.926Z,13.60
2023-05-19T20:15:44.279Z,13.60
2023-05-19T20:18:11.868Z,13.60
2023-05-19T20:20:39.184Z,13.60
2023-05-19T20:23:07.572Z,13.60
2023-05-19T20:25:47.685Z,13.60
2023-05-19T20:28:27.057Z,13.60
2023-05-19T20:30:54.013Z,13.60
2023-05-19T20:33:21.209Z,13.60
2023-05-19T20:35:48.128Z,13.60
2023-05-19T20:38:15.097Z,13.70
2023-05-19T20:40:42.051Z,13.70
2023-05-19T20:43:09.021Z,13.80
2023-05-19T20:45:37.563Z,13.80
2023-05-19T20:48:05.613Z,13.80
2023-05-19T20:50:32.749Z,13.80
2023-05-19T20:53:00.471Z,13.80
2023-05-19T20:55:27.325Z,13.90
2023-05-19T20:57:54.226Z,13.80
2023-05-19T21:00:21.269Z,13.80
2023-05-19T21:02:49.591Z,13.80
2023-05-19T21:05:16.478Z,13.80
2023-05-19T21:07:43.631Z,13.80
2023-05-19T21:10:13.702Z,13.80
2023-05-19T21:12:40.615Z,13.70
2023-05-19T21:15:08.739Z,13.70
2023-05-19T21:17:35.796Z,13.70
2023-05-19T21:20:05.258Z,13.70
2023-05-19T21:22:32.346Z,13.70
2023-05-19T21:24:59.294Z,13.70
2023-05-19T21:27:26.216Z,13.70
2023-05-19T21:29:54.136Z,13.70
2023-05-19T21:32:21.369Z,13.70
2023-05-19T21:34:48.392Z,13.70
2023-05-19T21:37:17.622Z,13.70
2023-05-19T21:39:45.033Z,13.60
2023-05-19T21:42:12.030Z,13.60
2023-05-19T21:44:38.941Z,13.60
2023-05-19T21:47:06.504Z,13.60
2023-05-19T21:49:33.452Z,13.60
2023-05-19T21:52:00.309Z,13.50
2023-05-19T21:54:28.655Z,13.50
2023-05-19T21:56:55.699Z,13.50
2023-05-19T21:59:24.630Z,13.50
2023-05-19T22:01:51.888Z,13.50
2023-05-19T22:04:20.390Z,13.50
2023-05-19T22:06:47.349Z,13.50
2023-05-19T22:09:14.309Z,13.50
2023-05-19T22:11:42.710Z,13.50
2023-05-19T22:14:09.611Z,13.40
2023-05-19T22:16:36.656Z,13.30
2023-05-19T22:19:03.651Z,13.30
2023-05-19T22:21:31.172Z,13.30
2023-05-19T22:23:58.160Z,13.20
2023-05-19T22:26:25.082Z,13.20
2023-05-19T22:28:53.423Z,13.20
2023-05-19T22:31:20.659Z,13.10
2023-05-19T22:33:47.891Z,13.00
2023-05-19T22:36:16.236Z,13.00
2023-05-19T22:38:43.199Z,13.00
2023-05-19T22:41:10.422Z,13.00
2023-05-19T22:43:37.417Z,13.00
2023-05-19T22:46:05.980Z,13.00
2023-05-19T22:48:32.962Z,13.00
2023-05-19T22:50:59.862Z,13.00
2023-05-19T22:53:26.870Z,12.90
2023-05-19T22:55:53.761Z,12.90
2023-05-19T22:58:20.636Z,13.00
2023-05-19T23:00:47.543Z,13.00
2023-05-19T23:03:15.996Z,13.00
2023-05-19T23:05:43.092Z,13.00
2023-05-19T23:08:10.054Z,13.00
2023-05-19T23:10:37.252Z,13.00
2023-05-19T23:13:04.158Z,13.00
2023-05-19T23:15:31.058Z,13.00
2023-05-19T23:17:57.959Z,13.00
2023-05-19T23:20:26.334Z,12.90
2023-05-19T23:22:53.208Z,13.00
2023-05-19T23:25:20.182Z,12.90
2023-05-19T23:27:47.052Z,12.90
2023-05-19T23:30:13.943Z,12.90
2023-05-19T23:32:41.067Z,12.80
2023-05-19T23:35:12.626Z,12.80
2023-05-19T23:37:41.115Z,12.80
2023-05-19T23:40:08.972Z,12.80
2023-05-19T23:42:36.737Z,12.90
2023-05-19T23:45:03.976Z,12.90
2023-05-19T23:47:31.032Z,12.90
2023-05-19T23:49:58.069Z,12.90
2023-05-19T23:52:25.017Z,12.90
2023-05-19T23:54:53.326Z,12.90
2023-05-19T23:57:20.225Z,13.00
2023-05-19T23:59:47.325Z,13.00
